sensor_id;sensor_type;location;lat;lon;timestamp;temperature;humidity
28087;DHT22;15392;48.912;8.380;2023-03-20T00:02:07;16.30;48.50
28087;DHT22;15392;48.912;8.380;2023-03-20T00:04:36;16.20;48.50
28087;DHT22;15392;48.912;8.380;2023-03-20T00:07:01;16.20;48.60
28087;DHT22;15392;48.912;8.380;2023-03-20T00:09:28;16.20;48.60
28087;DHT22;15392;48.912;8.380;2023-03-20T00:11:54;16.10;48.60
28087;DHT22;15392;48.912;8.380;2023-03-20T00:14:21;16.20;48.70
28087;DHT22;15392;48.912;8.380;2023-03-20T00:16:49;16.10;48.60
28087;DHT22;15392;48.912;8.380;2023-03-20T00:19:25;16.10;48.70
28087;DHT22;15392;48.912;8.380;2023-03-20T00:21:54;16.00;48.90
28087;DHT22;15392;48.912;8.380;2023-03-20T00:24:21;16.00;48.80
28087;DHT22;15392;48.912;8.380;2023-03-20T00:26:49;16.00;48.70
28087;DHT22;15392;48.912;8.380;2023-03-20T00:29:20;15.90;48.80
28087;DHT22;15392;48.912;8.380;2023-03-20T00:31:48;15.90;48.70
28087;DHT22;15392;48.912;8.380;2023-03-20T00:34:16;15.90;48.80
28087;DHT22;15392;48.912;8.380;2023-03-20T00:36:43;15.90;48.90
28087;DHT22;15392;48.912;8.380;2023-03-20T00:39:09;15.90;48.90
28087;DHT22;15392;48.912;8.380;2023-03-20T00:41:54;15.90;49.00
28087;DHT22;15392;48.912;8.380;2023-03-20T00:44:24;15.90;49.10
28087;DHT22;15392;48.912;8.380;2023-03-20T00:46:53;16.00;49.00
28087;DHT22;15392;48.912;8.380;2023-03-20T00:49:30;16.00;49.40
28087;DHT22;15392;48.912;8.380;2023-03-20T00:51:57;16.00;48.80
28087;DHT22;15392;48.912;8.380;2023-03-20T00:54:24;16.00;48.80
28087;DHT22;15392;48.912;8.380;2023-03-20T00:57:02;16.00;48.90
28087;DHT22;15392;48.912;8.380;2023-03-20T00:59:31;16.10;49.10
28087;DHT22;15392;48.912;8.380;2023-03-20T01:02:00;16.10;49.30
28087;DHT22;15392;48.912;8.380;2023-03-20T01:04:33;16.10;48.70
28087;DHT22;15392;48.912;8.380;2023-03-20T01:07:01;16.10;48.80
28087;DHT22;15392;48.912;8.380;2023-03-20T01:09:27;16.10;48.70
28087;DHT22;15392;48.912;8.380;2023-03-20T01:11:52;16.10;48.80
28087;DHT22;15392;48.912;8.380;2023-03-20T01:14:18;16.10;48.90
28087;DHT22;15392;48.912;8.380;2023-03-20T01:16:44;16.10;48.80
28087;DHT22;15392;48.912;8.380;2023-03-20T01:19:14;16.20;48.90
28087;DHT22;15392;48.912;8.380;2023-03-20T01:21:41;16.20;49.00
28087;DHT22;15392;48.912;8.380;2023-03-20T01:24:07;16.20;48.80
28087;DHT22;15392;48.912;8.380;2023-03-20T01:26:41;16.20;48.70
28087;DHT22;15392;48.912;8.380;2023-03-20T01:29:23;16.20;48.90
28087;DHT22;15392;48.912;8.380;2023-03-20T01:31:50;16.20;49.20
28087;DHT22;15392;48.912;8.380;2023-03-20T01:34:17;16.20;48.80
28087;DHT22;15392;48.912;8.380;2023-03-20T01:36:48;16.10;48.80
28087;DHT22;15392;48.912;8.380;2023-03-20T01:39:16;16.20;49.00
28087;DHT22;15392;48.912;8.380;2023-03-20T01:41:43;16.20;48.90
28087;DHT22;15392;48.912;8.380;2023-03-20T01:44:36;16.20;48.90
28087;DHT22;15392;48.912;8.380;2023-03-20T01:47:10;16.20;49.20
28087;DHT22;15392;48.912;8.380;2023-03-20T01:52:51;16.20;49.40
28087;DHT22;15392;48.912;8.380;2023-03-20T01:55:22;16.20;48.90
28087;DHT22;15392;48.912;8.380;2023-03-20T01:57:49;16.20;48.90
28087;DHT22;15392;48.912;8.380;2023-03-20T02:00:17;16.20;48.90
28087;DHT22;15392;48.912;8.380;2023-03-20T02:02:46;16.20;49.00
28087;DHT22;15392;48.912;8.380;2023-03-20T02:05:14;16.30;49.10
28087;DHT22;15392;48.912;8.380;2023-03-20T02:07:56;16.20;49.10
28087;DHT22;15392;48.912;8.380;2023-03-20T02:10:27;16.30;49.10
28087;DHT22;15392;48.912;8.380;2023-03-20T02:12:53;16.20;49.00
28087;DHT22;15392;48.912;8.380;2023-03-20T02:15:19;16.30;49.10
28087;DHT22;15392;48.912;8.380;2023-03-20T02:17:45;16.30;49.10
28087;DHT22;15392;48.912;8.380;2023-03-20T02:20:40;16.30;49.10
28087;DHT22;15392;48.912;8.380;2023-03-20T02:23:40;16.30;49.50
28087;DHT22;15392;48.912;8.380;2023-03-20T02:32:18;16.40;49.60
28087;DHT22;15392;48.912;8.380;2023-03-20T02:35:29;16.30;49.10
28087;DHT22;15392;48.912;8.380;2023-03-20T02:44:07;16.30;49.20
28087;DHT22;15392;48.912;8.380;2023-03-20T02:46:57;16.30;49.10
28087;DHT22;15392;48.912;8.380;2023-03-20T02:49:45;16.30;49.50
28087;DHT22;15392;48.912;8.380;2023-03-20T02:52:15;16.30;49.50
28087;DHT22;15392;48.912;8.380;2023-03-20T02:58:13;16.20;49.50
28087;DHT22;15392;48.912;8.380;2023-03-20T03:00:50;16.20;49.60
28087;DHT22;15392;48.912;8.380;2023-03-20T03:03:59;16.20;49.40
28087;DHT22;15392;48.912;8.380;2023-03-20T03:06:30;16.20;49.50
28087;DHT22;15392;48.912;8.380;2023-03-20T03:09:02;16.20;49.40
28087;DHT22;15392;48.912;8.380;2023-03-20T03:11:38;16.20;49.40
28087;DHT22;15392;48.912;8.380;2023-03-20T03:14:16;16.20;49.60
28087;DHT22;15392;48.912;8.380;2023-03-20T03:16:47;16.20;49.60
28087;DHT22;15392;48.912;8.380;2023-03-20T03:19:20;16.20;49.50
28087;DHT22;15392;48.912;8.380;2023-03-20T03:21:48;16.20;49.70
28087;DHT22;15392;48.912;8.380;2023-03-20T03:24:36;16.20;49.50
28087;DHT22;15392;48.912;8.380;2023-03-20T03:27:15;16.20;49.80
28087;DHT22;15392;48.912;8.380;2023-03-20T03:29:57;16.20;49.70
28087;DHT22;15392;48.912;8.380;2023-03-20T03:32:30;16.20;49.60
28087;DHT22;15392;48.912;8.380;2023-03-20T03:34:59;16.20;49.70
28087;DHT22;15392;48.912;8.380;2023-03-20T03:49:03;16.20;49.60
28087;DHT22;15392;48.912;8.380;2023-03-20T03:51:32;16.10;49.40
28087;DHT22;15392;48.912;8.380;2023-03-20T03:54:10;16.10;49.50
28087;DHT22;15392;48.912;8.380;2023-03-20T03:56:41;16.10;50.00
28087;DHT22;15392;48.912;8.380;2023-03-20T03:59:12;16.10;49.20
28087;DHT22;15392;48.912;8.380;2023-03-20T04:01:45;16.00;49.30
28087;DHT22;15392;48.912;8.380;2023-03-20T04:04:14;16.00;49.30
28087;DHT22;15392;48.912;8.380;2023-03-20T04:06:40;16.00;49.40
28087;DHT22;15392;48.912;8.380;2023-03-20T04:09:07;15.90;49.30
28087;DHT22;15392;48.912;8.380;2023-03-20T04:11:32;15.90;49.50
28087;DHT22;15392;48.912;8.380;2023-03-20T04:14:00;15.90;49.50
28087;DHT22;15392;48.912;8.380;2023-03-20T04:16:26;15.90;49.50
28087;DHT22;15392;48.912;8.380;2023-03-20T04:18:52;15.90;49.50
28087;DHT22;15392;48.912;8.380;2023-03-20T04:21:20;15.80;49.50
28087;DHT22;15392;48.912;8.380;2023-03-20T04:23:46;15.80;49.60
28087;DHT22;15392;48.912;8.380;2023-03-20T04:26:11;15.80;49.70
28087;DHT22;15392;48.912;8.380;2023-03-20T04:28:37;15.80;49.70
28087;DHT22;15392;48.912;8.380;2023-03-20T04:31:03;15.70;49.60
28087;DHT22;15392;48.912;8.380;2023-03-20T04:33:29;15.70;49.70
28087;DHT22;15392;48.912;8.380;2023-03-20T04:35:55;15.70;49.70
28087;DHT22;15392;48.912;8.380;2023-03-20T04:38:21;15.70;49.80
28087;DHT22;15392;48.912;8.380;2023-03-20T04:40:47;15.70;49.90
28087;DHT22;15392;48.912;8.380;2023-03-20T04:43:14;15.70;49.90
28087;DHT22;15392;48.912;8.380;2023-03-20T04:45:40;15.70;49.90
28087;DHT22;15392;48.912;8.380;2023-03-20T04:48:06;15.70;49.90
28087;DHT22;15392;48.912;8.380;2023-03-20T04:50:32;15.70;50.00
28087;DHT22;15392;48.912;8.380;2023-03-20T04:52:58;15.60;50.00
28087;DHT22;15392;48.912;8.380;2023-03-20T04:55:24;15.60;50.00
28087;DHT22;15392;48.912;8.380;2023-03-20T04:57:50;15.60;50.00
28087;DHT22;15392;48.912;8.380;2023-03-20T05:00:16;15.60;50.00
28087;DHT22;15392;48.912;8.380;2023-03-20T05:02:43;15.60;50.00
28087;DHT22;15392;48.912;8.380;2023-03-20T05:05:09;15.60;50.00
28087;DHT22;15392;48.912;8.380;2023-03-20T05:07:35;15.60;50.10
28087;DHT22;15392;48.912;8.380;2023-03-20T05:10:02;15.60;50.10
28087;DHT22;15392;48.912;8.380;2023-03-20T05:12:29;15.60;50.10
28087;DHT22;15392;48.912;8.380;2023-03-20T05:14:55;15.60;50.10
28087;DHT22;15392;48.912;8.380;2023-03-20T05:17:22;15.60;50.10
28087;DHT22;15392;48.912;8.380;2023-03-20T05:19:49;15.60;50.00
28087;DHT22;15392;48.912;8.380;2023-03-20T05:22:16;15.60;50.10
28087;DHT22;15392;48.912;8.380;2023-03-20T05:24:42;15.50;50.10
28087;DHT22;15392;48.912;8.380;2023-03-20T05:27:07;15.50;50.10
28087;DHT22;15392;48.912;8.380;2023-03-20T05:29:33;15.50;50.10
28087;DHT22;15392;48.912;8.380;2023-03-20T05:31:59;15.50;50.10
28087;DHT22;15392;48.912;8.380;2023-03-20T05:34:25;15.50;50.10
28087;DHT22;15392;48.912;8.380;2023-03-20T05:36:52;15.50;50.20
28087;DHT22;15392;48.912;8.380;2023-03-20T05:39:18;15.50;50.20
28087;DHT22;15392;48.912;8.380;2023-03-20T05:41:44;15.50;50.20
28087;DHT22;15392;48.912;8.380;2023-03-20T05:44:10;15.50;50.20
28087;DHT22;15392;48.912;8.380;2023-03-20T05:46:36;15.50;50.30
28087;DHT22;15392;48.912;8.380;2023-03-20T05:49:01;15.50;50.30
28087;DHT22;15392;48.912;8.380;2023-03-20T05:51:27;15.50;50.30
28087;DHT22;15392;48.912;8.380;2023-03-20T05:53:53;15.50;50.30
28087;DHT22;15392;48.912;8.380;2023-03-20T05:56:19;15.50;50.30
28087;DHT22;15392;48.912;8.380;2023-03-20T05:58:45;15.40;50.30
28087;DHT22;15392;48.912;8.380;2023-03-20T06:01:10;15.50;50.30
28087;DHT22;15392;48.912;8.380;2023-03-20T06:03:36;15.40;50.30
28087;DHT22;15392;48.912;8.380;2023-03-20T06:06:03;15.50;50.40
28087;DHT22;15392;48.912;8.380;2023-03-20T06:08:29;15.50;50.30
28087;DHT22;15392;48.912;8.380;2023-03-20T06:10:55;15.40;50.30
28087;DHT22;15392;48.912;8.380;2023-03-20T06:13:21;15.40;50.20
28087;DHT22;15392;48.912;8.380;2023-03-20T06:15:47;15.40;50.30
28087;DHT22;15392;48.912;8.380;2023-03-20T06:18:12;15.50;50.30
28087;DHT22;15392;48.912;8.380;2023-03-20T06:20:38;15.50;50.30
28087;DHT22;15392;48.912;8.380;2023-03-20T06:23:04;15.50;50.30
28087;DHT22;15392;48.912;8.380;2023-03-20T06:25:30;15.50;50.40
28087;DHT22;15392;48.912;8.380;2023-03-20T06:27:56;15.50;50.30
28087;DHT22;15392;48.912;8.380;2023-03-20T06:30:22;15.50;50.30
28087;DHT22;15392;48.912;8.380;2023-03-20T06:32:48;15.60;50.20
28087;DHT22;15392;48.912;8.380;2023-03-20T06:35:14;15.60;50.20
28087;DHT22;15392;48.912;8.380;2023-03-20T06:37:40;15.60;50.20
28087;DHT22;15392;48.912;8.380;2023-03-20T06:40:06;15.60;50.20
28087;DHT22;15392;48.912;8.380;2023-03-20T06:42:33;15.60;50.10
28087;DHT22;15392;48.912;8.380;2023-03-20T06:44:58;15.60;50.00
28087;DHT22;15392;48.912;8.380;2023-03-20T06:47:24;15.60;50.00
28087;DHT22;15392;48.912;8.380;2023-03-20T06:49:50;15.60;50.10
28087;DHT22;15392;48.912;8.380;2023-03-20T06:52:18;15.60;50.10
28087;DHT22;15392;48.912;8.380;2023-03-20T06:54:46;15.70;50.10
28087;DHT22;15392;48.912;8.380;2023-03-20T06:57:12;15.70;50.00
28087;DHT22;15392;48.912;8.380;2023-03-20T06:59:38;15.70;50.00
28087;DHT22;15392;48.912;8.380;2023-03-20T07:02:04;15.70;50.10
28087;DHT22;15392;48.912;8.380;2023-03-20T07:04:30;15.70;50.00
28087;DHT22;15392;48.912;8.380;2023-03-20T07:06:56;15.70;50.10
28087;DHT22;15392;48.912;8.380;2023-03-20T07:09:23;15.70;50.00
28087;DHT22;15392;48.912;8.380;2023-03-20T07:11:49;15.70;50.10
28087;DHT22;15392;48.912;8.380;2023-03-20T07:14:15;15.70;50.00
28087;DHT22;15392;48.912;8.380;2023-03-20T07:16:40;15.70;50.00
28087;DHT22;15392;48.912;8.380;2023-03-20T07:19:06;15.70;50.10
28087;DHT22;15392;48.912;8.380;2023-03-20T07:21:33;15.70;50.10
28087;DHT22;15392;48.912;8.380;2023-03-20T07:23:59;15.70;50.80
28087;DHT22;15392;48.912;8.380;2023-03-20T07:26:25;15.70;50.10
28087;DHT22;15392;48.912;8.380;2023-03-20T07:28:51;15.70;50.10
28087;DHT22;15392;48.912;8.380;2023-03-20T07:31:25;15.70;50.20
28087;DHT22;15392;48.912;8.380;2023-03-20T07:33:53;15.80;50.50
28087;DHT22;15392;48.912;8.380;2023-03-20T07:36:19;15.80;50.10
28087;DHT22;15392;48.912;8.380;2023-03-20T07:38:45;15.70;50.10
28087;DHT22;15392;48.912;8.380;2023-03-20T07:41:11;15.70;49.90
28087;DHT22;15392;48.912;8.380;2023-03-20T07:43:37;15.70;50.00
28087;DHT22;15392;48.912;8.380;2023-03-20T07:46:04;15.70;49.90
28087;DHT22;15392;48.912;8.380;2023-03-20T07:48:31;15.70;49.90
28087;DHT22;15392;48.912;8.380;2023-03-20T07:50:57;15.70;49.90
28087;DHT22;15392;48.912;8.380;2023-03-20T07:53:23;15.80;50.00
28087;DHT22;15392;48.912;8.380;2023-03-20T07:55:49;15.70;49.90
28087;DHT22;15392;48.912;8.380;2023-03-20T07:58:15;15.80;50.00
28087;DHT22;15392;48.912;8.380;2023-03-20T08:00:43;15.80;50.10
28087;DHT22;15392;48.912;8.380;2023-03-20T08:03:09;15.80;50.20
28087;DHT22;15392;48.912;8.380;2023-03-20T08:05:35;15.80;50.20
28087;DHT22;15392;48.912;8.380;2023-03-20T08:08:02;15.80;50.30
28087;DHT22;15392;48.912;8.380;2023-03-20T08:10:28;15.80;50.40
28087;DHT22;15392;48.912;8.380;2023-03-20T08:12:54;15.80;50.30
28087;DHT22;15392;48.912;8.380;2023-03-20T08:15:20;15.80;50.30
28087;DHT22;15392;48.912;8.380;2023-03-20T08:17:46;15.90;50.30
28087;DHT22;15392;48.912;8.380;2023-03-20T08:20:13;15.90;50.10
28087;DHT22;15392;48.912;8.380;2023-03-20T08:22:40;15.90;50.00
28087;DHT22;15392;48.912;8.380;2023-03-20T08:25:07;16.00;50.10
28087;DHT22;15392;48.912;8.380;2023-03-20T08:27:35;16.00;50.00
28087;DHT22;15392;48.912;8.380;2023-03-20T08:30:02;16.10;50.10
28087;DHT22;15392;48.912;8.380;2023-03-20T08:32:28;16.10;50.00
28087;DHT22;15392;48.912;8.380;2023-03-20T08:34:53;16.10;50.00
28087;DHT22;15392;48.912;8.380;2023-03-20T08:37:20;16.20;50.00
28087;DHT22;15392;48.912;8.380;2023-03-20T08:39:47;16.20;50.00
28087;DHT22;15392;48.912;8.380;2023-03-20T08:42:13;16.20;50.00
28087;DHT22;15392;48.912;8.380;2023-03-20T08:44:39;16.30;49.80
28087;DHT22;15392;48.912;8.380;2023-03-20T08:47:05;16.30;49.80
28087;DHT22;15392;48.912;8.380;2023-03-20T08:49:32;16.30;49.50
28087;DHT22;15392;48.912;8.380;2023-03-20T08:51:59;16.40;49.40
28087;DHT22;15392;48.912;8.380;2023-03-20T08:54:25;16.40;49.40
28087;DHT22;15392;48.912;8.380;2023-03-20T08:56:51;16.40;49.40
28087;DHT22;15392;48.912;8.380;2023-03-20T08:59:17;16.40;49.30
28087;DHT22;15392;48.912;8.380;2023-03-20T09:01:45;16.50;49.40
28087;DHT22;15392;48.912;8.380;2023-03-20T09:04:12;16.50;49.30
28087;DHT22;15392;48.912;8.380;2023-03-20T09:06:38;16.50;49.20
28087;DHT22;15392;48.912;8.380;2023-03-20T09:09:05;16.60;49.30
28087;DHT22;15392;48.912;8.380;2023-03-20T09:11:32;16.60;49.30
28087;DHT22;15392;48.912;8.380;2023-03-20T09:13:59;16.60;49.30
28087;DHT22;15392;48.912;8.380;2023-03-20T09:16:25;16.60;49.20
28087;DHT22;15392;48.912;8.380;2023-03-20T09:18:51;16.60;49.30
28087;DHT22;15392;48.912;8.380;2023-03-20T09:21:17;16.70;49.40
28087;DHT22;15392;48.912;8.380;2023-03-20T09:23:43;16.70;49.20
28087;DHT22;15392;48.912;8.380;2023-03-20T09:26:09;16.70;49.00
28087;DHT22;15392;48.912;8.380;2023-03-20T09:28:35;16.80;48.90
28087;DHT22;15392;48.912;8.380;2023-03-20T09:31:01;16.80;48.90
28087;DHT22;15392;48.912;8.380;2023-03-20T09:33:26;16.80;48.80
28087;DHT22;15392;48.912;8.380;2023-03-20T09:35:53;16.90;48.80
28087;DHT22;15392;48.912;8.380;2023-03-20T09:38:19;16.90;48.60
28087;DHT22;15392;48.912;8.380;2023-03-20T09:40:51;16.90;48.60
28087;DHT22;15392;48.912;8.380;2023-03-20T09:43:22;17.00;48.60
28087;DHT22;15392;48.912;8.380;2023-03-20T09:46:47;17.00;48.50
28087;DHT22;15392;48.912;8.380;2023-03-20T09:49:39;17.00;48.50
28087;DHT22;15392;48.912;8.380;2023-03-20T09:53:03;17.00;48.30
28087;DHT22;15392;48.912;8.380;2023-03-20T09:55:16;17.10;48.30
28087;DHT22;15392;48.912;8.380;2023-03-20T09:57:49;17.10;48.20
28087;DHT22;15392;48.912;8.380;2023-03-20T10:00:23;17.10;48.10
28087;DHT22;15392;48.912;8.380;2023-03-20T10:02:59;17.10;48.10
28087;DHT22;15392;48.912;8.380;2023-03-20T10:08:35;17.20;48.00
28087;DHT22;15392;48.912;8.380;2023-03-20T10:11:29;17.20;48.00
28087;DHT22;15392;48.912;8.380;2023-03-20T10:22:48;17.40;47.70
28087;DHT22;15392;48.912;8.380;2023-03-20T10:25:42;17.40;47.70
28087;DHT22;15392;48.912;8.380;2023-03-20T10:28:16;17.50;47.70
28087;DHT22;15392;48.912;8.380;2023-03-20T10:31:21;17.50;47.60
28087;DHT22;15392;48.912;8.380;2023-03-20T10:37:06;17.60;47.50
28087;DHT22;15392;48.912;8.380;2023-03-20T10:42:41;17.70;47.20
28087;DHT22;15392;48.912;8.380;2023-03-20T10:45:26;17.80;47.20
28087;DHT22;15392;48.912;8.380;2023-03-20T10:47:58;17.80;46.90
28087;DHT22;15392;48.912;8.380;2023-03-20T10:50:54;17.80;47.10
28087;DHT22;15392;48.912;8.380;2023-03-20T10:53:29;17.90;47.00
28087;DHT22;15392;48.912;8.380;2023-03-20T10:56:06;17.90;47.10
28087;DHT22;15392;48.912;8.380;2023-03-20T10:58:38;17.90;47.00
28087;DHT22;15392;48.912;8.380;2023-03-20T11:01:05;17.90;46.90
28087;DHT22;15392;48.912;8.380;2023-03-20T11:03:32;18.00;47.00
28087;DHT22;15392;48.912;8.380;2023-03-20T11:06:05;18.00;47.00
28087;DHT22;15392;48.912;8.380;2023-03-20T11:08:40;18.00;47.00
28087;DHT22;15392;48.912;8.380;2023-03-20T11:11:07;18.10;46.90
28087;DHT22;15392;48.912;8.380;2023-03-20T11:13:35;18.10;46.90
28087;DHT22;15392;48.912;8.380;2023-03-20T11:18:45;18.20;46.70
28087;DHT22;15392;48.912;8.380;2023-03-20T11:21:28;18.30;46.90
28087;DHT22;15392;48.912;8.380;2023-03-20T11:23:55;18.30;47.00
28087;DHT22;15392;48.912;8.380;2023-03-20T11:26:37;18.40;46.80
28087;DHT22;15392;48.912;8.380;2023-03-20T11:29:29;18.40;46.60
28087;DHT22;15392;48.912;8.380;2023-03-20T11:32:49;18.40;46.30
28087;DHT22;15392;48.912;8.380;2023-03-20T11:35:17;18.40;46.30
28087;DHT22;15392;48.912;8.380;2023-03-20T11:37:54;18.40;46.00
28087;DHT22;15392;48.912;8.380;2023-03-20T11:40:23;18.40;46.10
28087;DHT22;15392;48.912;8.380;2023-03-20T11:45:35;18.40;46.40
28087;DHT22;15392;48.912;8.380;2023-03-20T11:48:03;18.40;46.40
28087;DHT22;15392;48.912;8.380;2023-03-20T11:50:35;18.40;46.40
28087;DHT22;15392;48.912;8.380;2023-03-20T11:53:16;18.40;46.50
28087;DHT22;15392;48.912;8.380;2023-03-20T11:55:57;18.50;46.60
28087;DHT22;15392;48.912;8.380;2023-03-20T11:58:28;18.50;46.60
28087;DHT22;15392;48.912;8.380;2023-03-20T12:00:55;18.50;46.60
28087;DHT22;15392;48.912;8.380;2023-03-20T12:03:43;18.60;46.60
28087;DHT22;15392;48.912;8.380;2023-03-20T12:15:21;18.80;45.90
28087;DHT22;15392;48.912;8.380;2023-03-20T12:20:27;18.80;45.80
28087;DHT22;15392;48.912;8.380;2023-03-20T12:26:12;18.80;45.60
28087;DHT22;15392;48.912;8.380;2023-03-20T12:34:21;18.80;45.80
28087;DHT22;15392;48.912;8.380;2023-03-20T12:36:50;18.80;45.40
28087;DHT22;15392;48.912;8.380;2023-03-20T12:39:30;18.80;45.60
28087;DHT22;15392;48.912;8.380;2023-03-20T12:50:39;18.70;45.20
28087;DHT22;15392;48.912;8.380;2023-03-20T12:56:24;18.70;45.50
28087;DHT22;15392;48.912;8.380;2023-03-20T12:59:10;18.70;46.20
28087;DHT22;15392;48.912;8.380;2023-03-20T13:01:44;18.70;45.70
28087;DHT22;15392;48.912;8.380;2023-03-20T13:10:38;18.70;45.30
28087;DHT22;15392;48.912;8.380;2023-03-20T13:19:02;18.80;45.00
28087;DHT22;15392;48.912;8.380;2023-03-20T13:21:39;18.80;45.40
28087;DHT22;15392;48.912;8.380;2023-03-20T13:24:40;18.80;45.60
28087;DHT22;15392;48.912;8.380;2023-03-20T13:30:33;18.80;45.70
28087;DHT22;15392;48.912;8.380;2023-03-20T13:33:32;18.80;45.30
28087;DHT22;15392;48.912;8.380;2023-03-20T13:38:55;18.80;45.10
28087;DHT22;15392;48.912;8.380;2023-03-20T13:41:24;18.80;45.10
28087;DHT22;15392;48.912;8.380;2023-03-20T13:43:55;18.80;45.00
28087;DHT22;15392;48.912;8.380;2023-03-20T13:46:35;18.90;45.00
28087;DHT22;15392;48.912;8.380;2023-03-20T13:49:12;18.80;44.60
28087;DHT22;15392;48.912;8.380;2023-03-20T13:51:56;18.90;44.70
28087;DHT22;15392;48.912;8.380;2023-03-20T14:03:39;18.90;44.60
28087;DHT22;15392;48.912;8.380;2023-03-20T14:12:09;18.90;44.30
28087;DHT22;15392;48.912;8.380;2023-03-20T14:14:52;18.90;44.30
28087;DHT22;15392;48.912;8.380;2023-03-20T14:17:25;18.90;44.50
28087;DHT22;15392;48.912;8.380;2023-03-20T14:19:54;18.90;44.80
28087;DHT22;15392;48.912;8.380;2023-03-20T14:22:34;18.90;44.70
28087;DHT22;15392;48.912;8.380;2023-03-20T14:25:13;18.90;44.30
28087;DHT22;15392;48.912;8.380;2023-03-20T14:28:06;18.90;44.30
28087;DHT22;15392;48.912;8.380;2023-03-20T14:30:48;18.90;44.00
28087;DHT22;15392;48.912;8.380;2023-03-20T14:36:09;18.90;44.50
28087;DHT22;15392;48.912;8.380;2023-03-20T14:45:15;18.90;44.50
28087;DHT22;15392;48.912;8.380;2023-03-20T14:50:38;18.90;44.70
28087;DHT22;15392;48.912;8.380;2023-03-20T14:53:20;18.90;44.70
28087;DHT22;15392;48.912;8.380;2023-03-20T14:56:00;18.90;44.60
28087;DHT22;15392;48.912;8.380;2023-03-20T15:07:14;18.90;44.60
28087;DHT22;15392;48.912;8.380;2023-03-20T15:09:44;18.90;44.40
28087;DHT22;15392;48.912;8.380;2023-03-20T15:12:15;18.90;44.70
28087;DHT22;15392;48.912;8.380;2023-03-20T15:14:56;18.90;44.70
28087;DHT22;15392;48.912;8.380;2023-03-20T15:17:34;18.90;44.50
28087;DHT22;15392;48.912;8.380;2023-03-20T15:20:25;18.90;44.50
28087;DHT22;15392;48.912;8.380;2023-03-20T15:22:59;18.90;44.30
28087;DHT22;15392;48.912;8.380;2023-03-20T15:25:46;18.90;44.50
28087;DHT22;15392;48.912;8.380;2023-03-20T15:28:15;18.90;44.20
28087;DHT22;15392;48.912;8.380;2023-03-20T15:30:55;18.90;44.50
28087;DHT22;15392;48.912;8.380;2023-03-20T15:33:29;18.90;44.50
28087;DHT22;15392;48.912;8.380;2023-03-20T15:35:57;18.90;44.50
28087;DHT22;15392;48.912;8.380;2023-03-20T15:38:29;18.90;44.60
28087;DHT22;15392;48.912;8.380;2023-03-20T15:40:57;18.90;44.40
28087;DHT22;15392;48.912;8.380;2023-03-20T15:43:24;18.90;44.50
28087;DHT22;15392;48.912;8.380;2023-03-20T15:45:52;18.90;44.40
28087;DHT22;15392;48.912;8.380;2023-03-20T15:48:23;18.90;44.50
28087;DHT22;15392;48.912;8.380;2023-03-20T15:51:03;18.90;44.50
28087;DHT22;15392;48.912;8.380;2023-03-20T15:53:35;18.90;44.30
28087;DHT22;15392;48.912;8.380;2023-03-20T15:56:16;18.90;44.30
28087;DHT22;15392;48.912;8.380;2023-03-20T15:58:43;18.90;44.10
28087;DHT22;15392;48.912;8.380;2023-03-20T16:01:17;18.90;44.40
28087;DHT22;15392;48.912;8.380;2023-03-20T16:03:44;18.90;44.20
28087;DHT22;15392;48.912;8.380;2023-03-20T16:06:12;18.90;44.30
28087;DHT22;15392;48.912;8.380;2023-03-20T16:08:41;18.90;44.30
28087;DHT22;15392;48.912;8.380;2023-03-20T16:11:16;18.90;44.40
28087;DHT22;15392;48.912;8.380;2023-03-20T16:13:45;18.90;44.10
28087;DHT22;15392;48.912;8.380;2023-03-20T16:16:20;18.90;44.90
28087;DHT22;15392;48.912;8.380;2023-03-20T16:18:48;18.90;44.20
28087;DHT22;15392;48.912;8.380;2023-03-20T16:21:28;18.90;44.40
28087;DHT22;15392;48.912;8.380;2023-03-20T16:23:58;18.90;44.20
28087;DHT22;15392;48.912;8.380;2023-03-20T16:26:26;18.90;44.40
28087;DHT22;15392;48.912;8.380;2023-03-20T16:29:00;18.90;44.50
28087;DHT22;15392;48.912;8.380;2023-03-20T16:31:31;18.90;44.30
28087;DHT22;15392;48.912;8.380;2023-03-20T16:34:05;18.80;44.50
28087;DHT22;15392;48.912;8.380;2023-03-20T16:36:36;18.80;44.30
28087;DHT22;15392;48.912;8.380;2023-03-20T16:39:15;18.90;44.60
28087;DHT22;15392;48.912;8.380;2023-03-20T16:41:46;18.80;44.30
28087;DHT22;15392;48.912;8.380;2023-03-20T16:44:39;18.80;44.50
28087;DHT22;15392;48.912;8.380;2023-03-20T16:52:27;18.90;44.50
28087;DHT22;15392;48.912;8.380;2023-03-20T16:54:59;18.80;44.40
28087;DHT22;15392;48.912;8.380;2023-03-20T16:57:26;18.80;44.40
28087;DHT22;15392;48.912;8.380;2023-03-20T16:59:55;18.80;44.50
28087;DHT22;15392;48.912;8.380;2023-03-20T17:02:29;18.80;44.50
28087;DHT22;15392;48.912;8.380;2023-03-20T17:05:01;18.70;44.50
28087;DHT22;15392;48.912;8.380;2023-03-20T17:07:32;18.70;44.40
28087;DHT22;15392;48.912;8.380;2023-03-20T17:10:07;18.70;44.50
28087;DHT22;15392;48.912;8.380;2023-03-20T17:12:44;18.70;44.40
28087;DHT22;15392;48.912;8.380;2023-03-20T17:15:21;18.70;44.40
28087;DHT22;15392;48.912;8.380;2023-03-20T17:17:47;18.70;44.30
28087;DHT22;15392;48.912;8.380;2023-03-20T17:20:25;18.70;44.50
28087;DHT22;15392;48.912;8.380;2023-03-20T17:22:53;18.60;44.20
28087;DHT22;15392;48.912;8.380;2023-03-20T17:25:19;18.60;44.40
28087;DHT22;15392;48.912;8.380;2023-03-20T17:27:46;18.60;44.50
28087;DHT22;15392;48.912;8.380;2023-03-20T17:30:18;18.60;44.50
28087;DHT22;15392;48.912;8.380;2023-03-20T17:32:46;18.70;44.50
28087;DHT22;15392;48.912;8.380;2023-03-20T17:35:12;18.70;44.60
28087;DHT22;15392;48.912;8.380;2023-03-20T17:37:39;18.70;44.70
28087;DHT22;15392;48.912;8.380;2023-03-20T17:40:06;18.60;44.70
28087;DHT22;15392;48.912;8.380;2023-03-20T17:42:35;18.60;44.70
28087;DHT22;15392;48.912;8.380;2023-03-20T17:45:03;18.60;44.70
28087;DHT22;15392;48.912;8.380;2023-03-20T17:47:30;18.60;44.70
28087;DHT22;15392;48.912;8.380;2023-03-20T17:49:56;18.60;45.30
28087;DHT22;15392;48.912;8.380;2023-03-20T17:52:25;18.60;44.70
28087;DHT22;15392;48.912;8.380;2023-03-20T17:54:52;18.50;44.70
28087;DHT22;15392;48.912;8.380;2023-03-20T17:59:57;18.50;44.60
28087;DHT22;15392;48.912;8.380;2023-03-20T18:02:24;18.50;44.70
28087;DHT22;15392;48.912;8.380;2023-03-20T18:04:50;18.50;44.80
28087;DHT22;15392;48.912;8.380;2023-03-20T18:07:22;18.50;44.80
28087;DHT22;15392;48.912;8.380;2023-03-20T18:09:48;18.40;44.80
28087;DHT22;15392;48.912;8.380;2023-03-20T18:12:16;18.50;45.00
28087;DHT22;15392;48.912;8.380;2023-03-20T18:14:44;18.40;45.00
28087;DHT22;15392;48.912;8.380;2023-03-20T18:17:15;18.40;45.00
28087;DHT22;15392;48.912;8.380;2023-03-20T18:19:41;18.30;44.90
28087;DHT22;15392;48.912;8.380;2023-03-20T18:22:08;18.30;44.90
28087;DHT22;15392;48.912;8.380;2023-03-20T18:24:35;18.30;44.90